Time;durP1;ratioP1;P1;durP2;ratioP2;P2;SDS_P1;SDS_P2;PMS_P1;PMS_P2;Temp;Humidity;BMP_temperature;BMP_pressure;BME280_temperature;BME280_humidity;BME280_pressure;Samples;Min_cycle;Max_cycle;Signal;HPM_P1;HPM_P2
2021/11/07 09:10:34;;;;;;;17.15;9.10;;;;;;;-144.43;100.00;64487.81;4995566;28;20089;-63
2021/11/07 09:13:01;;;;;;;12.90;8.38;;;;;;;-144.43;100.00;64487.81;4992703;28;20026;-63
2021/11/07 09:15:27;;;;;;;15.73;9.00;;;;;;;-144.43;100.00;64487.81;5026176;28;20037;-64
2021/11/07 09:17:55;;;;;;;15.82;10.05;;;;;;;-144.43;100.00;64487.81;5014693;28;20026;-63
2021/11/07 09:20:31;;;;;;;14.70;9.55;;;;;;;-144.43;100.00;64487.81;5009624;28;20033;-63
2021/11/07 09:23:01;;;;;;;15.40;8.43;;;;;;;-144.43;100.00;64487.81;5027344;28;20048;-63
2021/11/07 09:28:23;;;;;;;11.35;7.93;;;;;;;-144.43;100.00;64487.81;5025839;28;20046;-63
2021/11/07 09:31:08;;;;;;;11.07;7.20;;;;;;;-144.43;100.00;64487.81;5039367;28;20029;-63
2021/11/07 09:36:30;;;;;;;11.10;7.22;;;;;;;-144.43;100.00;64487.81;5026146;28;20044;-64
2021/11/07 09:44:08;;;;;;;10.73;6.90;;;;;;;-144.43;100.00;64487.81;5025971;28;20033;-64
2021/11/07 09:46:40;;;;;;;10.82;6.75;;;;;;;-144.43;100.00;64487.81;5055459;27;20073;-64
2021/11/07 09:49:16;;;;;;;9.27;6.50;;;;;;;-144.43;100.00;64487.81;5007223;28;20069;-64
2021/11/07 09:51:46;;;;;;;10.10;5.93;;;;;;;-144.43;100.00;64487.81;5034774;28;20026;-64
2021/11/07 09:54:18;;;;;;;8.60;6.07;;;;;;;-144.43;100.00;64487.81;5001157;28;20021;-64
2021/11/07 09:56:50;;;;;;;9.20;6.50;;;;;;;-144.43;100.00;64487.81;5019402;28;20096;-64
2021/11/07 09:59:16;;;;;;;7.65;5.85;;;;;;;-144.43;100.00;64487.81;5012995;28;20033;-64
2021/11/07 10:01:41;;;;;;;8.25;5.82;;;;;;;-144.43;100.00;64487.81;5047483;28;20039;-63
2021/11/07 10:04:07;;;;;;;8.35;6.00;;;;;;;-144.43;100.00;64487.81;5078548;28;20383;-64
2021/11/07 10:06:43;;;;;;;8.23;6.22;;;;;;;-144.43;100.00;64487.81;4985189;28;20064;-66
2021/11/07 10:09:10;;;;;;;9.20;5.95;;;;;;;-144.43;100.00;64487.81;4984908;28;20027;-62
2021/11/07 10:11:38;;;;;;;9.32;6.40;;;;;;;-144.43;100.00;64487.81;4969215;28;20031;-63
2021/11/07 10:14:18;;;;;;;9.25;6.18;;;;;;;-144.43;100.00;64487.81;4986324;28;20050;-63
2021/11/07 10:16:48;;;;;;;9.40;6.82;;;;;;;-144.43;100.00;64487.81;4995185;28;20019;-62
2021/11/07 10:19:38;;;;;;;10.73;7.50;;;;;;;-144.43;100.00;64487.81;4981203;28;20043;-62
2021/11/07 10:22:04;;;;;;;11.70;7.95;;;;;;;-144.43;100.00;64487.81;5027906;28;20036;-62
2021/11/07 10:24:34;;;;;;;12.32;7.93;;;;;;;-144.43;100.00;64487.81;4972936;28;20027;-62
2021/11/07 10:27:02;;;;;;;13.02;9.05;;;;;;;-144.43;100.00;64487.81;4971894;28;20026;-62
2021/11/07 10:29:38;;;;;;;13.68;9.15;;;;;;;-144.43;100.00;64487.81;4973845;28;20385;-63
2021/11/07 10:32:10;;;;;;;14.18;9.73;;;;;;;-144.43;100.00;64487.81;4973358;28;20030;-62
2021/11/07 10:43:38;;;;;;;12.80;9.10;;;;;;;-144.43;100.00;64487.81;4973284;28;20121;-62
2021/11/07 10:53:28;;;;;;;12.25;9.02;;;;;;;-144.43;100.00;64487.81;4973334;28;20058;-63
2021/11/07 10:55:58;;;;;;;13.65;8.63;;;;;;;-144.43;100.00;64487.81;4972182;28;20023;-62
2021/11/07 10:58:30;;;;;;;11.00;8.18;;;;;;;-144.43;100.00;64487.81;4972391;28;20038;-62
2021/11/07 11:00:59;;;;;;;14.25;9.52;;;;;;;-144.43;100.00;64487.81;4973692;28;20118;-62
2021/11/07 11:03:24;;;;;;;12.55;9.00;;;;;;;-144.43;100.00;64487.81;4971891;28;20042;-62
2021/11/07 11:05:59;;;;;;;13.15;8.60;;;;;;;-144.43;100.00;64487.81;4991128;28;20031;-62
2021/11/07 11:08:36;;;;;;;13.65;9.52;;;;;;;-144.43;100.00;64487.81;4973770;28;20110;-63
2021/11/07 11:11:19;;;;;;;12.00;8.68;;;;;;;-144.43;100.00;64487.81;4972678;28;20030;-63
2021/11/07 11:14:09;;;;;;;12.95;8.48;;;;;;;-144.43;100.00;64487.81;4974114;28;20023;-63
2021/11/07 11:45:53;;;;;;;12.77;8.30;;;;;;;-144.43;100.00;64487.81;4989906;28;20379;-63
2021/11/07 11:56:48;;;;;;;9.95;7.40;;;;;;;-144.43;100.00;64487.81;5025108;28;20070;-62
2021/11/07 12:00:21;;;;;;;9.85;6.95;;;;;;;-144.43;100.00;64487.81;4973181;28;20038;-61
2021/11/07 12:02:38;;;;;;;10.60;7.57;;;;;;;-144.43;100.00;64487.81;5001661;28;20032;-63
2021/11/07 12:05:19;;;;;;;9.32;6.72;;;;;;;-144.43;100.00;64487.81;5022020;28;20042;-63
2021/11/07 12:08:08;;;;;;;7.75;6.05;;;;;;;-144.43;100.00;64487.81;5039776;28;20025;-63
2021/11/07 12:10:42;;;;;;;7.95;6.20;;;;;;;-144.43;100.00;64487.81;5012202;28;20081;-63
2021/11/07 12:13:25;;;;;;;9.25;5.97;;;;;;;-144.43;100.00;64487.81;4995626;28;20484;-63
2021/11/07 12:15:53;;;;;;;8.00;6.30;;;;;;;-144.43;100.00;64487.81;5012156;28;20132;-63
2021/11/07 12:18:19;;;;;;;8.52;6.03;;;;;;;-144.43;100.00;64487.81;5012222;28;20022;-63
2021/11/07 12:20:54;;;;;;;8.55;6.63;;;;;;;-144.43;100.00;64487.81;4994574;28;20472;-63
2021/11/07 12:23:28;;;;;;;7.95;5.90;;;;;;;-144.43;100.00;64487.81;4994459;28;20030;-63
2021/11/07 12:25:55;;;;;;;8.48;6.20;;;;;;;-144.43;100.00;64487.81;4996174;28;20052;-62
2021/11/07 12:28:54;;;;;;;7.97;6.10;;;;;;;-144.43;100.00;64487.81;5067605;28;20034;-62
2021/11/07 12:31:20;;;;;;;8.05;5.18;;;;;;;-144.43;100.00;64487.81;5010917;28;20090;-62
2021/11/07 12:40:30;;;;;;;6.70;5.05;;;;;;;-144.43;100.00;64487.81;5015462;28;20029;-63
2021/11/07 12:42:21;;;;;;;7.90;6.20;;;;;;;-144.43;100.00;64487.81;4997235;28;20565;-62
2021/11/07 12:44:51;;;;;;;8.57;6.60;;;;;;;-144.43;100.00;64487.81;5009688;28;20496;-62
2021/11/07 12:47:22;;;;;;;8.35;6.47;;;;;;;-144.43;100.00;64487.81;5021887;28;20511;-62
2021/11/07 12:49:57;;;;;;;8.20;6.25;;;;;;;-144.43;100.00;64487.81;5012682;28;20053;-62
2021/11/07 12:52:23;;;;;;;9.32;6.75;;;;;;;-144.43;100.00;64487.81;4994465;28;20397;-62
2021/11/07 12:54:48;;;;;;;8.25;6.22;;;;;;;-144.43;100.00;64487.81;4994260;28;20029;-61
2021/11/07 12:57:17;;;;;;;8.95;6.60;;;;;;;-144.43;100.00;64487.81;5011282;28;20029;-63
2021/11/07 13:00:06;;;;;;;9.88;7.68;;;;;;;-144.43;100.00;64487.81;5011467;28;20033;-62
2021/11/07 13:02:34;;;;;;;9.88;7.72;;;;;;;-144.43;100.00;64487.81;5010412;28;20057;-62
2021/11/07 13:05:03;;;;;;;10.75;7.32;;;;;;;-144.43;100.00;64487.81;5012723;28;20379;-62
2021/11/07 13:07:44;;;;;;;8.70;6.70;;;;;;;-144.43;100.00;64487.81;5032172;28;20033;-62
2021/11/07 13:10:21;;;;;;;8.98;6.95;;;;;;;-144.43;100.00;64487.81;5010463;28;20037;-63
2021/11/07 13:12:53;;;;;;;8.65;6.90;;;;;;;-144.43;100.00;64487.81;4993110;28;20026;-62
2021/11/07 13:18:23;;;;;;;7.07;5.80;;;;;;;-144.43;100.00;64487.81;5036644;28;20292;-61
2021/11/07 13:34:25;;;;;;;7.10;5.45;;;;;;;-144.43;100.00;64487.81;4999224;28;20521;-63
2021/11/07 13:36:53;;;;;;;8.13;5.53;;;;;;;-144.43;100.00;64487.81;5002163;28;20107;-62
2021/11/07 13:39:24;;;;;;;8.45;5.63;;;;;;;-144.43;100.00;64487.81;5050489;28;20061;-62
2021/11/07 13:41:56;;;;;;;7.28;5.53;;;;;;;-144.43;100.00;64487.81;4991277;28;20030;-63
2021/11/07 13:44:25;;;;;;;6.72;5.18;;;;;;;-144.43;100.00;64487.81;5016566;28;20171;-64
2021/11/07 13:47:08;;;;;;;6.55;5.30;;;;;;;-144.43;100.00;64487.81;4995693;28;20034;-63
2021/11/07 13:49:47;;;;;;;;;;;;;;;-144.43;100.00;64487.81;5035994;28;20038;-62
2021/11/07 13:52:12;;;;;;;7.28;5.85;;;;;;;-144.43;100.00;64487.81;5006541;28;20012;-63
2021/11/07 13:54:39;;;;;;;8.75;6.05;;;;;;;-144.43;100.00;64487.81;5021489;28;20108;-63
2021/11/07 13:57:04;;;;;;;7.78;5.47;;;;;;;-144.43;100.00;64487.81;5018416;28;20019;-62
2021/11/07 13:59:39;;;;;;;6.53;5.53;;;;;;;-144.43;100.00;64487.81;5080525;28;20053;-63
2021/11/07 14:02:12;;;;;;;7.63;5.57;;;;;;;-144.43;100.00;64487.81;5058248;28;20365;-61
2021/11/07 14:04:54;;;;;;;7.18;5.53;;;;;;;-144.43;100.00;64487.81;5006129;28;20069;-63
2021/11/07 14:07:27;;;;;;;8.63;6.28;;;;;;;-144.43;100.00;64487.81;4972987;28;20040;-63
2021/11/07 14:09:54;;;;;;;7.43;5.95;;;;;;;-144.43;100.00;64487.81;4993988;28;20108;-63
2021/11/07 14:12:40;;;;;;;8.00;6.32;;;;;;;-144.43;100.00;64487.81;4994070;28;20074;-63
2021/11/07 14:15:09;;;;;;;8.05;5.88;;;;;;;-144.43;100.00;64487.81;5014871;28;20075;-63
2021/11/07 14:17:35;;;;;;;7.97;5.93;;;;;;;-144.43;100.00;64487.81;4990673;28;20026;-63
2021/11/07 14:20:03;;;;;;;7.65;6.13;;;;;;;-144.43;100.00;64487.81;4974489;28;20030;-63
2021/11/07 14:22:28;;;;;;;8.55;6.85;;;;;;;-144.43;100.00;64487.81;5007198;28;20030;-63
2021/11/07 14:25:02;;;;;;;8.57;6.43;;;;;;;-144.43;100.00;64487.81;4991606;28;20037;-64
2021/11/07 14:27:36;;;;;;;8.23;6.32;;;;;;;-144.43;100.00;64487.81;5011759;28;20112;-64
2021/11/07 14:30:06;;;;;;;10.15;6.25;;;;;;;-144.43;100.00;64487.81;5005015;28;20362;-64
2021/11/07 14:32:35;;;;;;;7.78;6.05;;;;;;;-144.43;100.00;64487.81;5006178;28;20116;-62
2021/11/07 14:35:09;;;;;;;8.82;6.03;;;;;;;-144.43;100.00;64487.81;4994686;28;20062;-62
2021/11/07 14:40:12;;;;;;;8.73;6.22;;;;;;;-144.43;100.00;64487.81;4982339;28;20112;-62
2021/11/07 14:43:12;;;;;;;8.95;6.22;;;;;;;-144.43;100.00;64487.81;5010547;28;20507;-62
2021/11/07 15:03:08;;;;;;;9.55;7.00;;;;;;;-144.43;100.00;64487.81;5011133;28;20041;-61
2021/11/07 15:08:10;;;;;;;8.85;6.18;;;;;;;-144.43;100.00;64487.81;4972542;28;20026;-62
2021/11/07 15:10:46;;;;;;;8.77;5.75;;;;;;;-144.43;100.00;64487.81;4971967;28;20066;-61
2021/11/07 15:24:23;;;;;;;7.22;5.22;;;;;;;-144.43;100.00;64487.81;4973177;28;20367;-63
2021/11/07 15:26:54;;;;;;;6.65;5.13;;;;;;;-144.43;100.00;64487.81;4971537;28;20023;-63
2021/11/07 15:29:27;;;;;;;7.75;5.45;;;;;;;-144.43;100.00;64487.81;4971984;28;20019;-63
2021/11/07 15:32:05;;;;;;;6.80;5.05;;;;;;;-144.43;100.00;64487.81;4972201;28;20105;-63
2021/11/07 15:34:36;;;;;;;8.48;5.60;;;;;;;-144.43;100.00;64487.81;4971691;28;20030;-62
2021/11/07 15:37:04;;;;;;;6.80;5.00;;;;;;;-144.43;100.00;64487.81;4902741;28;20042;-62
2021/11/07 15:39:32;;;;;;;6.38;4.80;;;;;;;-144.43;100.00;64487.81;4926714;28;20756;-62
2021/11/07 15:42:19;;;;;;;7.22;4.80;;;;;;;-144.43;100.00;64487.81;5012078;28;20152;-62
2021/11/07 15:44:56;;;;;;;7.47;4.90;;;;;;;-144.43;100.00;64487.81;5009002;28;20389;-62
2021/11/07 15:47:26;;;;;;;6.05;5.13;;;;;;;-144.43;100.00;64487.81;5018572;28;20366;-61
2021/11/07 15:50:19;;;;;;;8.70;5.65;;;;;;;-144.43;100.00;64487.81;5000008;28;20171;-62
2021/11/07 15:52:46;;;;;;;12.43;5.20;;;;;;;-144.43;100.00;64487.81;5004884;28;20034;-62
2021/11/07 16:06:08;;;;;;;7.38;5.00;;;;;;;-144.43;100.00;64487.81;5028520;28;20064;-61
2021/11/07 16:11:32;;;;;;;8.15;5.07;;;;;;;-144.43;100.00;64487.81;5028043;28;20032;-62
2021/11/07 16:14:06;;;;;;;6.78;4.78;;;;;;;-144.43;100.00;64487.81;5026831;28;20033;-62
2021/11/07 16:16:44;;;;;;;7.13;4.68;;;;;;;-144.43;100.00;64487.81;5027539;28;20029;-62
2021/11/07 16:19:13;;;;;;;11.40;6.75;;;;;;;-144.43;100.00;64487.81;5025681;28;20033;-62
2021/11/07 16:21:50;;;;;;;8.63;5.40;;;;;;;-144.43;100.00;64487.81;5028607;28;20048;-63
2021/11/07 16:24:18;;;;;;;7.45;5.00;;;;;;;-144.43;100.00;64487.81;5017995;28;20032;-62
2021/11/07 16:26:45;;;;;;;9.30;5.97;;;;;;;-144.43;100.00;64487.81;5042217;28;20499;-62
2021/11/07 16:29:11;;;;;;;7.63;5.13;;;;;;;-144.43;100.00;64487.81;5028434;28;20022;-60
2021/11/07 16:31:44;;;;;;;7.30;4.95;;;;;;;-144.43;100.00;64487.81;5011671;28;20040;-62
2021/11/07 16:34:13;;;;;;;8.27;5.25;;;;;;;-144.43;100.00;64487.81;5020440;28;20018;-62
2021/11/07 16:36:46;;;;;;;9.05;5.13;;;;;;;-144.43;100.00;64487.81;5037639;28;20028;-62
2021/11/07 16:41:52;;;;;;;7.95;5.22;;;;;;;-144.43;100.00;64487.81;5037276;28;20017;-60
2021/11/07 16:44:19;;;;;;;6.60;4.80;;;;;;;-144.43;100.00;64487.81;5018291;28;20757;-61
2021/11/07 16:46:50;;;;;;;10.18;5.35;;;;;;;-144.43;100.00;64487.81;5027075;28;20029;-62
2021/11/07 16:49:22;;;;;;;5.90;4.60;;;;;;;-144.43;100.00;64487.81;5028952;28;20032;-62
2021/11/07 16:52:31;;;;;;;6.78;4.95;;;;;;;-144.43;100.00;64487.81;5026322;28;20547;-62
2021/11/07 16:54:40;;;;;;;7.15;5.15;;;;;;;-144.43;100.00;64487.81;5030947;28;20175;-62
2021/11/07 16:57:08;;;;;;;7.65;5.00;;;;;;;-144.43;100.00;64487.81;5038546;28;20033;-62
2021/11/07 16:59:46;;;;;;;6.60;4.90;;;;;;;-144.43;100.00;64487.81;5032496;28;20064;-62
2021/11/07 17:02:19;;;;;;;8.85;5.22;;;;;;;-144.43;100.00;64487.81;5050348;28;20029;-62
2021/11/07 17:04:50;;;;;;;6.45;4.63;;;;;;;-144.43;100.00;64487.81;5051700;28;20041;-62
2021/11/07 17:07:21;;;;;;;6.65;5.05;;;;;;;-144.43;100.00;64487.81;5034986;28;20040;-62
2021/11/07 17:09:50;;;;;;;8.70;4.70;;;;;;;-144.43;100.00;64487.81;5051766;28;20021;-62
2021/11/07 17:12:21;;;;;;;6.40;4.70;;;;;;;-144.43;100.00;64487.81;5039532;28;20041;-62
2021/11/07 17:14:50;;;;;;;7.13;4.63;;;;;;;-144.43;100.00;64487.81;5070578;22;20051;-65
2021/11/07 17:17:29;;;;;;;6.35;4.57;;;;;;;-144.43;100.00;64487.81;5049227;28;20052;-64
2021/11/07 17:20:01;;;;;;;10.00;6.00;;;;;;;-144.43;100.00;64487.81;5051900;28;20017;-64
2021/11/07 17:22:49;;;;;;;7.50;5.00;;;;;;;-144.43;100.00;64487.81;5064737;28;20032;-64
2021/11/07 17:25:26;;;;;;;10.27;5.38;;;;;;;-144.43;100.00;64487.81;5059758;28;20756;-64
2021/11/07 17:28:18;;;;;;;6.40;4.68;;;;;;;-144.43;100.00;64487.81;5087269;28;20398;-65
2021/11/07 17:30:45;;;;;;;6.88;4.30;;;;;;;-144.43;100.00;64487.81;5080830;28;20465;-66
2021/11/07 17:33:28;;;;;;;6.80;4.47;;;;;;;-144.43;100.00;64487.81;5080417;28;20464;-65
2021/11/07 17:36:24;;;;;;;8.45;4.93;;;;;;;-144.43;100.00;64487.81;5059651;28;20540;-66
2021/11/07 17:49:29;;;;;;;7.20;5.00;;;;;;;-144.43;100.00;64487.81;5075297;28;20505;-65
2021/11/07 17:54:47;;;;;;;8.02;4.88;;;;;;;-144.43;100.00;64487.81;5085693;28;20051;-65
2021/11/07 17:57:20;;;;;;;7.25;5.10;;;;;;;-144.43;100.00;64487.81;5089332;28;20029;-65
2021/11/07 17:59:49;;;;;;;5.53;4.43;;;;;;;-144.43;100.00;64487.81;5090118;28;20039;-65
2021/11/07 18:02:15;;;;;;;7.45;4.90;;;;;;;-144.43;100.00;64487.81;5066539;28;20063;-65
2021/11/07 18:04:44;;;;;;;8.68;5.28;;;;;;;-144.43;100.00;64487.81;5071401;28;20056;-65
2021/11/07 18:07:16;;;;;;;8.93;5.75;;;;;;;-144.43;100.00;64487.81;5089442;28;20082;-65
2021/11/07 18:10:03;;;;;;;7.75;5.28;;;;;;;-144.43;100.00;64487.81;5070031;28;20039;-65
2021/11/07 18:12:31;;;;;;;10.57;5.57;;;;;;;-144.43;100.00;64487.81;5059762;28;20394;-65
2021/11/07 18:14:57;;;;;;;8.23;5.32;;;;;;;-144.43;100.00;64487.81;5070520;28;20045;-66
2021/11/07 18:17:23;;;;;;;7.97;5.43;;;;;;;-144.43;100.00;64487.81;5070465;28;20021;-64
2021/11/07 18:19:49;;;;;;;6.75;4.85;;;;;;;-144.43;100.00;64487.81;5070006;28;20372;-66
2021/11/07 18:22:19;;;;;;;11.55;6.40;;;;;;;-144.43;100.00;64487.81;5054946;28;20098;-66
2021/11/07 18:25:04;;;;;;;6.30;4.72;;;;;;;-144.43;100.00;64487.81;5086468;28;20020;-66
2021/11/07 18:27:37;;;;;;;7.43;5.30;;;;;;;-144.43;100.00;64487.81;5087478;28;20023;-66
2021/11/07 18:30:20;;;;;;;7.88;5.43;;;;;;;-144.43;100.00;64487.81;5079502;28;20027;-66
2021/11/07 18:32:46;;;;;;;7.95;5.30;;;;;;;-144.43;100.00;64487.81;5074405;28;20024;-64
2021/11/07 18:35:13;;;;;;;8.75;5.57;;;;;;;-144.43;100.00;64487.81;5085526;28;20112;-66
2021/11/07 18:37:39;;;;;;;8.07;5.35;;;;;;;-144.43;100.00;64487.81;5089025;28;20026;-66
2021/11/07 18:40:11;;;;;;;8.05;5.22;;;;;;;-144.43;100.00;64487.81;5081378;28;20471;-65
2021/11/07 18:42:37;;;;;;;7.90;5.32;;;;;;;-144.43;100.00;64487.81;5088270;28;20035;-66
2021/11/07 18:45:05;;;;;;;8.63;5.72;;;;;;;-144.43;100.00;64487.81;5075547;28;20119;-65
2021/11/07 18:47:30;;;;;;;7.63;5.20;;;;;;;-144.43;100.00;64487.81;5074043;28;20022;-65
2021/11/07 18:49:56;;;;;;;7.97;5.30;;;;;;;-144.43;100.00;64487.81;5058745;28;20382;-65
2021/11/07 18:52:21;;;;;;;9.05;5.55;;;;;;;-144.43;100.00;64487.81;5067177;28;20016;-65
2021/11/07 18:54:47;;;;;;;10.15;6.72;;;;;;;-144.43;100.00;64487.81;5073498;28;20033;-66
2021/11/07 18:57:15;;;;;;;10.23;6.72;;;;;;;-144.43;100.00;64487.81;5066400;28;20029;-66
2021/11/07 18:59:41;;;;;;;12.05;7.25;;;;;;;-144.43;100.00;64487.81;5040556;28;20114;-65
2021/11/07 19:02:06;;;;;;;14.20;6.75;;;;;;;-144.43;100.00;64487.81;5072080;28;20119;-66
2021/11/07 19:04:32;;;;;;;11.15;5.85;;;;;;;-144.43;100.00;64487.81;5072344;28;20165;-65
2021/11/07 19:06:58;;;;;;;9.93;5.90;;;;;;;-144.43;100.00;64487.81;5089207;28;20599;-65
2021/11/07 19:09:27;;;;;;;10.38;6.95;;;;;;;-144.43;100.00;64487.81;5089259;28;20063;-65
2021/11/07 19:11:52;;;;;;;11.50;6.90;;;;;;;-144.43;100.00;64487.81;5055414;28;20020;-65
2021/11/07 19:14:18;;;;;;;11.15;6.32;;;;;;;-144.43;100.00;64487.81;5088521;28;20032;-65
2021/11/07 19:16:46;;;;;;;11.82;7.53;;;;;;;-144.43;100.00;64487.81;5073244;28;20028;-65
2021/11/07 19:19:11;;;;;;;9.52;7.00;;;;;;;-144.43;100.00;64487.81;5071940;28;20031;-65
2021/11/07 19:21:37;;;;;;;8.95;6.43;;;;;;;-144.43;100.00;64487.81;5088950;28;20111;-65
2021/11/07 19:24:03;;;;;;;10.30;6.18;;;;;;;-144.43;100.00;64487.81;5073256;28;20020;-66
2021/11/07 19:26:30;;;;;;;10.65;6.50;;;;;;;-144.43;100.00;64487.81;5089094;28;20017;-65
2021/11/07 19:28:56;;;;;;;10.00;6.45;;;;;;;-144.43;100.00;64487.81;5071340;28;20055;-66
2021/11/07 19:31:24;;;;;;;9.40;6.82;;;;;;;-144.43;100.00;64487.81;5061487;28;20506;-66
2021/11/07 19:33:50;;;;;;;9.07;6.05;;;;;;;-144.43;100.00;64487.81;5084048;28;20391;-66
2021/11/07 19:36:16;;;;;;;9.13;6.35;;;;;;;-144.43;100.00;64487.81;5064735;28;20024;-66
2021/11/07 19:38:43;;;;;;;9.73;6.60;;;;;;;-144.43;100.00;64487.81;5070110;28;20028;-65
2021/11/07 19:41:12;;;;;;;12.13;6.93;;;;;;;-144.43;100.00;64487.81;5071312;28;20102;-66
2021/11/07 19:43:39;;;;;;;11.25;6.82;;;;;;;-144.43;100.00;64487.81;5073062;28;20031;-66
2021/11/07 19:46:27;;;;;;;9.85;6.45;;;;;;;-144.43;100.00;64487.81;5088403;28;20111;-66
2021/11/07 19:49:07;;;;;;;10.73;7.00;;;;;;;-144.43;100.00;64487.81;5084284;28;20553;-66
2021/11/07 19:51:43;;;;;;;8.55;6.13;;;;;;;-144.43;100.00;64487.81;5086096;28;20115;-66
2021/11/07 19:54:12;;;;;;;8.68;6.03;;;;;;;-144.43;100.00;64487.81;5086808;28;20064;-66
2021/11/07 19:56:41;;;;;;;9.55;6.63;;;;;;;-144.43;100.00;64487.81;5064520;28;20029;-66
2021/11/07 19:59:11;;;;;;;10.45;6.75;;;;;;;-144.43;100.00;64487.81;5070132;28;20025;-66
2021/11/07 20:09:36;;;;;;;8.60;6.32;;;;;;;-144.43;100.00;64487.81;5088029;28;20047;-65
2021/11/07 20:12:07;;;;;;;10.13;6.55;;;;;;;-144.43;100.00;64487.81;5058363;28;20017;-65
2021/11/07 20:14:45;;;;;;;11.05;7.07;;;;;;;-144.43;100.00;64487.81;5057593;28;20136;-66
2021/11/07 20:17:15;;;;;;;9.75;6.47;;;;;;;-144.43;100.00;64487.81;5087396;28;20266;-65
2021/11/07 20:19:41;;;;;;;9.43;6.75;;;;;;;-144.43;100.00;64487.81;5045262;28;20024;-66
2021/11/07 20:22:11;;;;;;;9.75;6.75;;;;;;;-144.43;100.00;64487.81;5066834;28;20052;-66
2021/11/07 20:24:37;;;;;;;9.70;6.43;;;;;;;-144.43;100.00;64487.81;5072391;28;20013;-66
2021/11/07 20:27:04;;;;;;;8.82;6.22;;;;;;;-144.43;100.00;64487.81;5070677;28;20406;-66
2021/11/07 20:29:31;;;;;;;11.05;5.72;;;;;;;-144.43;100.00;64487.81;5071711;28;20021;-66
2021/11/07 20:32:04;;;;;;;8.65;5.50;;;;;;;-144.43;100.00;64487.81;5070666;28;20414;-65
2021/11/07 20:34:42;;;;;;;12.55;5.70;;;;;;;-144.43;100.00;64487.81;5086905;28;20024;-65
2021/11/07 20:37:16;;;;;;;8.52;5.10;;;;;;;-144.43;100.00;64487.81;5086431;28;20024;-65
2021/11/07 20:39:43;;;;;;;10.65;5.18;;;;;;;-144.43;100.00;64487.81;5086605;28;20056;-65
2021/11/07 20:42:16;;;;;;;8.43;5.53;;;;;;;-144.43;100.00;64487.81;5087390;28;20051;-65
2021/11/07 20:52:43;;;;;;;9.15;6.35;;;;;;;-144.43;100.00;64487.81;5085027;28;20032;-65
2021/11/07 20:55:21;;;;;;;8.23;5.70;;;;;;;-144.43;100.00;64487.81;5070115;28;20023;-66
2021/11/07 21:06:06;;;;;;;10.25;6.30;;;;;;;-144.43;100.00;64487.81;5071412;28;20081;-65
2021/11/07 21:11:28;;;;;;;8.00;5.53;;;;;;;-144.43;100.00;64487.81;5071987;28;20038;-65
2021/11/07 21:13:58;;;;;;;9.60;6.72;;;;;;;-144.43;100.00;64487.81;5057157;28;20056;-65
2021/11/07 21:27:21;;;;;;;12.38;7.28;;;;;;;-144.43;100.00;64487.81;5071903;28;20078;-65
2021/11/07 21:29:47;;;;;;;12.88;7.03;;;;;;;-144.43;100.00;64487.81;5087701;28;20029;-65
2021/11/07 21:32:13;;;;;;;9.80;6.60;;;;;;;-144.43;100.00;64487.81;5087636;28;20467;-65
2021/11/07 21:37:44;;;;;;;10.70;7.10;;;;;;;-144.43;100.00;64487.81;5087042;28;20035;-65
2021/11/07 21:45:35;;;;;;;9.55;6.28;;;;;;;-144.43;100.00;64487.81;5053310;28;20314;-65
2021/11/07 21:48:03;;;;;;;9.75;6.30;;;;;;;-144.43;100.00;64487.81;5053722;28;20597;-65
2021/11/07 21:50:30;;;;;;;10.50;6.55;;;;;;;-144.43;100.00;64487.81;5087099;28;20032;-65
2021/11/07 21:52:55;;;;;;;9.70;6.05;;;;;;;-144.43;100.00;64487.81;5087337;28;20025;-65
2021/11/07 21:55:21;;;;;;;9.45;6.70;;;;;;;-144.43;100.00;64487.81;5071638;28;20383;-65
2021/11/07 21:57:47;;;;;;;7.93;5.63;;;;;;;-144.43;100.00;64487.81;5071598;28;20054;-65
2021/11/07 22:00:14;;;;;;;9.90;5.97;;;;;;;-144.43;100.00;64487.81;5087436;28;20028;-65
2021/11/07 22:02:40;;;;;;;10.70;6.43;;;;;;;-144.43;100.00;64487.81;5087437;28;20017;-65
2021/11/07 22:05:06;;;;;;;9.30;5.82;;;;;;;-144.43;100.00;64487.81;5045230;28;20491;-65
2021/11/07 22:07:44;;;;;;;10.18;5.65;;;;;;;-144.43;100.00;64487.81;5068935;28;20031;-66
2021/11/07 22:10:14;;;;;;;9.48;5.65;;;;;;;-144.43;100.00;64487.81;5087123;28;20024;-65
2021/11/07 22:12:40;;;;;;;9.27;6.25;;;;;;;-144.43;100.00;64487.81;5089789;28;20060;-65
2021/11/07 22:15:20;;;;;;;13.05;5.97;;;;;;;-144.43;100.00;64487.81;5090475;28;20091;-65
2021/11/07 22:17:53;;;;;;;7.93;5.60;;;;;;;-144.43;100.00;64487.81;5089147;28;20021;-65
2021/11/07 22:20:35;;;;;;;10.60;6.47;;;;;;;-144.43;100.00;64487.81;5089888;28;20107;-65
2021/11/07 22:23:24;;;;;;;11.20;6.57;;;;;;;-144.43;100.00;64487.81;5075071;28;20032;-65
2021/11/07 22:28:25;;;;;;;10.32;6.47;;;;;;;-144.43;100.00;64487.81;5090459;28;20060;-65
2021/11/07 22:30:51;;;;;;;7.53;6.25;;;;;;;-144.43;100.00;64487.81;5074861;28;20403;-65
2021/11/07 22:33:17;;;;;;;10.48;5.82;;;;;;;-144.43;100.00;64487.81;5090250;28;20028;-66
2021/11/07 22:35:49;;;;;;;11.00;5.55;;;;;;;-144.43;100.00;64487.81;5090295;28;20020;-65
2021/11/07 22:38:14;;;;;;;8.05;5.80;;;;;;;-144.43;100.00;64487.81;5071020;28;20090;-66
2021/11/07 22:40:39;;;;;;;10.30;6.35;;;;;;;-144.43;100.00;64487.81;5087087;28;20028;-65
2021/11/07 22:43:12;;;;;;;10.27;6.20;;;;;;;-144.43;100.00;64487.81;5089945;28;20034;-65
2021/11/07 22:45:39;;;;;;;9.15;6.20;;;;;;;-144.43;100.00;64487.81;5090073;28;20051;-65
2021/11/07 22:48:11;;;;;;;9.45;6.10;;;;;;;-144.43;100.00;64487.81;5073217;28;20441;-65
2021/11/07 22:50:50;;;;;;;8.27;5.80;;;;;;;-144.43;100.00;64487.81;5089277;28;20390;-65
2021/11/07 23:06:34;;;;;;;12.85;6.38;;;;;;;-144.43;100.00;64487.81;5087612;28;20082;-65
2021/11/07 23:11:40;;;;;;;8.50;6.18;;;;;;;-144.43;100.00;64487.81;5088489;28;20032;-65
2021/11/07 23:14:15;;;;;;;9.45;6.40;;;;;;;-144.43;100.00;64487.81;5072880;28;20040;-65
2021/11/07 23:16:51;;;;;;;13.07;7.20;;;;;;;-144.43;100.00;64487.81;5089750;28;20119;-64
2021/11/07 23:19:23;;;;;;;9.60;6.65;;;;;;;-144.43;100.00;64487.81;5072926;28;20066;-65
2021/11/07 23:21:59;;;;;;;9.50;6.65;;;;;;;-144.43;100.00;64487.81;5056098;28;20031;-66
2021/11/07 23:24:25;;;;;;;9.77;6.63;;;;;;;-144.43;100.00;64487.81;5072914;28;20544;-64
2021/11/07 23:26:51;;;;;;;9.70;7.07;;;;;;;-144.43;100.00;64487.81;5089467;28;20029;-64
2021/11/07 23:29:20;;;;;;;11.13;7.13;;;;;;;-144.43;100.00;64487.81;5089168;28;20506;-65
2021/11/07 23:31:49;;;;;;;9.82;6.28;;;;;;;-144.43;100.00;64487.81;5048260;28;20025;-65
2021/11/07 23:34:16;;;;;;;10.07;7.40;;;;;;;-144.43;100.00;64487.81;5050174;28;20029;-65
2021/11/07 23:36:47;;;;;;;10.10;7.53;;;;;;;-144.43;100.00;64487.81;5089258;28;20021;-64
2021/11/07 23:39:15;;;;;;;11.63;8.25;;;;;;;-144.43;100.00;64487.81;5072366;28;20043;-63
2021/11/07 23:41:42;;;;;;;10.85;8.35;;;;;;;-144.43;100.00;64487.81;5084394;28;20025;-66
2021/11/07 23:44:08;;;;;;;13.85;9.02;;;;;;;-144.43;100.00;64487.81;5085216;28;20032;-66
2021/11/07 23:46:34;;;;;;;12.05;7.88;;;;;;;-144.43;100.00;64487.81;5089083;28;20540;-65
2021/11/07 23:49:05;;;;;;;12.90;8.93;;;;;;;-144.43;100.00;64487.81;5089080;28;21108;-66
2021/11/07 23:54:17;;;;;;;13.25;8.65;;;;;;;-144.43;100.00;64487.81;5086406;28;20067;-66
2021/11/07 23:57:35;;;;;;;12.75;9.05;;;;;;;-144.43;100.00;64487.81;5088604;28;20568;-66
2021/11/07 23:59:35;;;;;;;12.25;8.52;;;;;;;-144.43;100.00;64487.81;5075337;28;20048;-65
